Terminal Aerodrome Forecast
Issued by NWS

Home | Current Version | Previous Version | Text Only | Print | Product List | Glossary On
Versions: 1 2 3 4 5 6 7 8 9 10 11 12 13 14
496
FTPA31 PHFO 201746
TAFHTO
TAF
PHTO 201746Z 2018/2118 25008KT P6SM FEW040
     FM202000 36015KT P6SM FEW025 SCT060
     FM210000 36009KT P6SM VCSH SCT025 BKN060=

USA.gov is the U.S. government's official web portal to all federal, state and local government web resources and services.